Terminal Aerodrome Forecast
Issued by NWS

Home | Current Version | Previous Version | Text Only | Print | Product List | Glossary On
Versions: 1 2 3 4 5 6 7 8 9 10 11 12 13 14 15
269
FTUS42 KTBW 310525
TAFLAL
TAF
KLAL 310525Z 3106/0106 VRB04KT P6SM VCSH SCT008 OVC020
     FM310800 VRB05KT P6SM VCSH SCT015 OVC100
     FM311400 20011KT P6SM VCSH SCT025 BKN050
     FM311800 20011G18KT 6SM RA VCTS SCT025CB OVC050
     FM010000 17009KT 6SM -RA SCT005 OVC025
      AMD NOT SKED TIL 311100=

USA.gov is the U.S. government's official web portal to all federal, state and local government web resources and services.